Time;durP1;ratioP1;P1;durP2;ratioP2;P2;SDS_P1;SDS_P2;PMS_P1;PMS_P2;Temp;Humidity;BMP_temperature;BMP_pressure;BME280_temperature;BME280_humidity;BME280_pressure;Samples;Min_cycle;Max_cycle;Signal;HPM_P1;HPM_P2
2020/12/05 00:02:21;;;;;;;6.83;5.40;;;8.10;99.90;;;;;;5042468;28;20538;-38
2020/12/05 00:04:47;;;;;;;6.30;5.27;;;7.80;99.90;;;;;;5048638;28;20420;-38
2020/12/05 00:07:14;;;;;;;6.40;5.80;;;8.00;99.90;;;;;;5051011;28;20807;-38
2020/12/05 00:09:40;;;;;;;6.40;4.83;;;8.00;99.90;;;;;;5051052;28;20197;-38
2020/12/05 00:12:07;;;;;;;6.97;5.57;;;8.00;99.90;;;;;;5048844;28;20458;-39
2020/12/05 00:14:34;;;;;;;6.00;5.50;;;7.90;99.90;;;;;;5050166;28;20431;-38
2020/12/05 00:16:59;;;;;;;5.50;5.00;;;8.20;99.90;;;;;;5049010;28;20871;-38
2020/12/05 00:19:25;;;;;;;6.03;5.40;;;8.10;99.90;;;;;;5050832;28;20523;-39
2020/12/05 00:21:56;;;;;;;5.30;4.80;;;8.20;99.90;;;;;;5049448;28;20241;-39
2020/12/05 00:24:22;;;;;;;5.90;5.30;;;8.10;99.90;;;;;;5050250;28;20189;-39
2020/12/05 00:26:51;;;;;;;5.87;5.17;;;8.30;99.90;;;;;;5050361;28;20431;-39
2020/12/05 00:29:17;;;;;;;5.60;5.10;;;7.90;99.90;;;;;;5050399;28;20427;-38
2020/12/05 00:31:43;;;;;;;5.00;4.50;;;8.10;99.90;;;;;;5050459;28;20452;-38
2020/12/05 00:34:09;;;;;;;5.57;5.10;;;7.80;99.90;;;;;;5050219;28;20429;-38
2020/12/05 00:36:35;;;;;;;5.93;5.27;;;7.70;99.90;;;;;;5050072;28;20474;-38
2020/12/05 00:39:02;;;;;;;9.60;6.10;;;7.60;99.90;;;;;;5050009;28;20806;-38
2020/12/05 00:41:28;;;;;;;6.10;5.50;;;7.50;99.90;;;;;;5050372;28;20765;-39
2020/12/05 00:43:54;;;;;;;6.07;5.47;;;7.50;99.90;;;;;;5049636;28;20429;-39
2020/12/05 00:46:19;;;;;;;6.17;5.57;;;7.60;99.90;;;;;;5048956;28;20676;-38
2020/12/05 00:48:45;;;;;;;6.73;5.50;;;7.50;99.90;;;;;;5048965;28;20635;-38
2020/12/05 00:51:12;;;;;;;5.97;5.47;;;7.60;99.90;;;;;;5045824;28;20352;-38
2020/12/05 00:53:38;;;;;;;6.00;5.50;;;7.80;99.90;;;;;;5058119;28;20560;-38
2020/12/05 00:56:04;;;;;;;5.93;5.33;;;7.70;99.90;;;;;;5046663;28;20416;-38
2020/12/05 00:58:34;;;;;;;6.20;5.60;;;7.50;99.90;;;;;;5049773;28;21065;-38
2020/12/05 01:01:04;;;;;;;8.13;5.60;;;7.50;99.90;;;;;;5046754;28;20263;-38
2020/12/05 01:03:31;;;;;;;6.50;5.90;;;7.60;99.90;;;;;;5050717;28;20416;-38
2020/12/05 01:05:57;;;;;;;5.63;5.13;;;7.60;99.90;;;;;;5048525;28;20511;-39
2020/12/05 01:08:23;;;;;;;6.33;5.73;;;7.60;99.90;;;;;;5049718;28;20422;-38
2020/12/05 01:10:50;;;;;;;6.83;6.33;;;7.30;99.90;;;;;;5049978;28;20412;-38
2020/12/05 01:13:15;;;;;;;7.63;6.93;;;7.40;99.90;;;;;;5049119;28;20193;-38
2020/12/05 01:15:41;;;;;;;6.50;5.90;;;7.50;99.90;;;;;;5045826;28;20408;-38
2020/12/05 01:18:07;;;;;;;6.50;5.60;;;7.60;99.90;;;;;;5049639;28;20552;-38
2020/12/05 01:20:33;;;;;;;6.33;5.83;;;7.70;99.90;;;;;;5049291;28;20197;-38
2020/12/05 01:22:58;;;;;;;6.30;5.70;;;7.70;99.90;;;;;;5047310;28;20467;-38
2020/12/05 01:25:24;;;;;;;7.43;6.63;;;7.70;99.90;;;;;;5049286;28;20192;-39
2020/12/05 01:27:50;;;;;;;7.10;6.40;;;7.50;99.90;;;;;;5049484;28;20395;-38
2020/12/05 01:30:15;;;;;;;6.70;6.10;;;7.60;99.90;;;;;;5048080;28;20190;-38
2020/12/05 01:32:41;;;;;;;7.57;6.30;;;7.60;99.90;;;;;;5048157;28;20677;-38
2020/12/05 01:35:07;;;;;;;7.00;6.40;;;7.80;99.90;;;;;;5048685;28;20229;-38
2020/12/05 01:37:33;;;;;;;8.07;7.27;;;7.70;99.90;;;;;;5049133;28;20276;-39
2020/12/05 01:39:59;;;;;;;6.90;6.20;;;7.80;99.90;;;;;;5049289;28;20193;-38
2020/12/05 01:42:24;;;;;;;7.53;6.83;;;7.70;99.90;;;;;;5049105;28;20271;-38
2020/12/05 01:44:50;;;;;;;7.23;6.53;;;7.50;99.90;;;;;;5048271;28;20926;-38
2020/12/05 01:47:16;;;;;;;7.30;6.60;;;7.40;99.90;;;;;;5048933;28;20556;-39
2020/12/05 01:49:43;;;;;;;9.30;7.80;;;7.50;99.90;;;;;;5048607;28;20243;-39
2020/12/05 01:52:09;;;;;;;8.53;7.70;;;7.60;99.90;;;;;;5049025;28;20220;-38
2020/12/05 01:54:35;;;;;;;8.43;7.37;;;7.60;99.90;;;;;;5048118;28;21118;-38
2020/12/05 01:57:04;;;;;;;7.23;6.50;;;7.90;99.90;;;;;;5048810;28;20424;-38
2020/12/05 01:59:31;;;;;;;7.53;6.70;;;7.60;99.90;;;;;;5048721;28;20462;-38
2020/12/05 02:02:01;;;;;;;7.13;6.27;;;7.40;99.90;;;;;;5049003;28;20498;-39
2020/12/05 02:04:35;;;;;;;7.90;7.10;;;7.40;99.90;;;;;;5047746;28;20792;-38
2020/12/05 02:07:23;;;;;;;8.50;6.60;;;7.60;99.90;;;;;;5048685;28;20426;-38
2020/12/05 02:09:52;;;;;;;7.40;6.20;;;7.40;99.90;;;;;;5048410;28;20504;-38
2020/12/05 02:12:42;;;;;;;7.80;6.87;;;7.40;99.90;;;;;;5048618;28;20813;-38
2020/12/05 02:15:16;;;;;;;7.40;6.60;;;7.50;99.90;;;;;;5048076;28;20444;-38
2020/12/05 02:18:03;;;;;;;8.20;7.40;;;7.40;99.90;;;;;;5046860;28;21035;-42
2020/12/05 02:20:31;;;;;;;8.10;7.00;;;7.40;99.90;;;;;;5048522;28;20857;-39
2020/12/05 02:23:12;;;;;;;8.60;7.57;;;7.30;99.90;;;;;;5047616;28;20822;-38
2020/12/05 02:25:46;;;;;;;8.60;7.60;;;7.30;99.90;;;;;;5063363;28;20420;-38
2020/12/05 02:28:15;;;;;;;7.73;6.93;;;7.20;99.90;;;;;;5047003;28;20444;-38
2020/12/05 02:30:41;;;;;;;6.30;5.70;;;7.30;99.90;;;;;;5048322;28;20412;-38
2020/12/05 02:33:07;;;;;;;8.20;6.10;;;7.30;99.90;;;;;;5047702;28;20824;-38
2020/12/05 02:35:34;;;;;;;7.40;6.13;;;7.30;99.90;;;;;;5046444;28;20193;-38
2020/12/05 02:38:22;;;;;;;7.13;6.43;;;7.00;99.90;;;;;;5048088;28;20197;-38
2020/12/05 02:40:48;;;;;;;7.00;6.37;;;7.10;99.90;;;;;;5047769;28;20422;-38
2020/12/05 02:43:14;;;;;;;6.87;6.20;;;6.90;99.90;;;;;;5047495;28;20963;-39
2020/12/05 02:45:40;;;;;;;8.53;6.70;;;7.10;99.90;;;;;;5048424;28;20424;-38
2020/12/05 02:48:09;;;;;;;8.97;8.00;;;6.90;99.90;;;;;;5047703;28;20182;-39
2020/12/05 02:50:36;;;;;;;8.67;7.77;;;7.20;99.90;;;;;;5048115;28;20946;-39
2020/12/05 02:53:03;;;;;;;8.53;7.73;;;6.90;99.90;;;;;;5047436;28;20815;-38
2020/12/05 02:55:28;;;;;;;9.10;7.30;;;6.90;99.90;;;;;;5047832;28;20428;-39
2020/12/05 02:57:54;;;;;;;8.00;7.20;;;6.80;99.90;;;;;;5047798;28;20508;-38
2020/12/05 03:00:21;;;;;;;10.50;8.40;;;6.90;99.90;;;;;;5047642;28;20982;-38
2020/12/05 03:02:47;;;;;;;10.93;9.60;;;7.10;99.90;;;;;;5047528;28;20702;-38
2020/12/05 03:05:13;;;;;;;9.00;8.10;;;7.10;99.90;;;;;;5026167;28;20432;-39
2020/12/05 03:07:39;;;;;;;9.53;8.63;;;7.30;99.90;;;;;;5036962;28;20424;-38
2020/12/05 03:10:05;;;;;;;9.97;8.10;;;7.20;99.90;;;;;;5048009;28;20671;-38
2020/12/05 03:12:30;;;;;;;12.13;9.47;;;7.00;99.90;;;;;;5047622;28;20584;-38
2020/12/05 03:14:56;;;;;;;12.13;9.50;;;7.00;99.90;;;;;;5047116;28;20197;-38
2020/12/05 03:17:22;;;;;;;11.67;9.47;;;7.20;99.90;;;;;;5046314;28;20583;-38
2020/12/05 03:19:47;;;;;;;12.07;9.47;;;7.00;99.90;;;;;;5047563;28;20193;-38
2020/12/05 03:22:13;;;;;;;11.40;9.73;;;7.20;99.90;;;;;;5046268;28;20262;-39
2020/12/05 03:24:39;;;;;;;10.43;9.20;;;7.20;99.90;;;;;;5047110;28;20652;-38
2020/12/05 03:27:05;;;;;;;11.00;9.90;;;7.00;99.90;;;;;;5047460;28;20193;-38
2020/12/05 03:29:31;;;;;;;11.00;9.50;;;7.00;99.90;;;;;;5047690;28;20696;-38
2020/12/05 03:32:09;;;;;;;11.90;10.03;;;7.00;99.90;;;;;;5047616;28;20185;-38
2020/12/05 03:34:35;;;;;;;12.97;10.60;;;7.10;99.90;;;;;;5046709;28;20431;-38
2020/12/05 03:37:00;;;;;;;13.63;10.60;;;7.20;99.90;;;;;;5047431;28;20424;-38
2020/12/05 03:39:26;;;;;;;13.63;11.03;;;7.00;99.90;;;;;;5051409;28;20194;-38
2020/12/05 03:41:52;;;;;;;16.83;11.00;;;7.00;99.90;;;;;;5051515;28;20483;-39
2020/12/05 03:44:18;;;;;;;13.20;11.50;;;7.20;99.90;;;;;;5050321;28;20192;-38
2020/12/05 03:46:43;;;;;;;15.60;11.80;;;7.00;99.90;;;;;;5051521;28;20189;-38
2020/12/05 03:49:09;;;;;;;15.27;11.60;;;7.10;99.90;;;;;;5051516;28;20420;-38
2020/12/05 03:51:35;;;;;;;14.57;11.40;;;7.30;99.90;;;;;;5051700;28;20197;-38
2020/12/05 03:54:01;;;;;;;14.10;11.10;;;7.10;99.90;;;;;;5049078;28;20197;-38
2020/12/05 03:56:26;;;;;;;13.40;11.03;;;6.90;99.90;;;;;;5051074;28;20185;-38
2020/12/05 03:58:54;;;;;;;15.20;12.00;;;7.00;99.90;;;;;;5050068;28;20194;-38
2020/12/05 04:01:21;;;;;;;15.40;12.10;;;7.10;99.90;;;;;;5048044;28;20217;-39
2020/12/05 04:03:46;;;;;;;13.50;11.47;;;7.10;99.90;;;;;;5046989;28;20756;-38
2020/12/05 04:06:12;;;;;;;15.43;12.30;;;7.20;99.90;;;;;;5050888;28;20427;-38
2020/12/05 04:08:40;;;;;;;15.00;12.73;;;7.10;99.90;;;;;;5050792;28;20204;-38
2020/12/05 04:11:06;;;;;;;15.47;11.93;;;7.00;99.90;;;;;;5051007;28;20213;-38
2020/12/05 04:13:32;;;;;;;13.50;11.80;;;6.90;99.90;;;;;;5049821;28;20957;-38
2020/12/05 04:15:58;;;;;;;18.07;13.07;;;7.20;99.90;;;;;;5049521;28;20763;-38
2020/12/05 04:18:23;;;;;;;16.37;12.80;;;7.10;99.90;;;;;;5050447;28;20450;-38
2020/12/05 04:20:49;;;;;;;15.50;12.90;;;7.00;99.90;;;;;;5050679;28;20193;-39
2020/12/05 04:23:15;;;;;;;16.50;11.70;;;7.00;99.90;;;;;;5049999;28;20192;-38
2020/12/05 04:25:41;;;;;;;15.47;12.27;;;6.90;99.90;;;;;;5050698;28;20213;-38
2020/12/05 04:28:07;;;;;;;17.40;13.03;;;7.10;99.90;;;;;;5049053;28;20443;-38
2020/12/05 04:30:32;;;;;;;16.83;13.20;;;7.00;99.90;;;;;;5050349;28;20182;-39
2020/12/05 04:32:58;;;;;;;15.60;12.43;;;6.70;99.90;;;;;;5049695;28;20190;-38
2020/12/05 04:35:24;;;;;;;14.00;11.67;;;7.00;99.90;;;;;;5050221;28;20214;-38
2020/12/05 04:37:49;;;;;;;14.27;12.23;;;6.90;99.90;;;;;;5050657;28;20229;-38
2020/12/05 04:40:15;;;;;;;15.27;13.20;;;6.70;99.90;;;;;;5050156;28;20177;-38
2020/12/05 04:42:48;;;;;;;16.50;12.50;;;6.90;99.90;;;;;;5049744;28;20218;-38
2020/12/05 04:45:16;;;;;;;15.73;11.37;;;7.00;99.90;;;;;;5049863;28;20444;-38
2020/12/05 04:47:43;;;;;;;16.93;12.43;;;6.80;99.90;;;;;;5050359;28;20903;-38
2020/12/05 04:50:10;;;;;;;16.73;12.67;;;7.00;99.90;;;;;;5050085;28;20748;-38
2020/12/05 04:52:39;;;;;;;18.17;12.93;;;6.80;99.90;;;;;;5050023;28;20938;-39
2020/12/05 04:55:05;;;;;;;17.37;12.57;;;7.10;99.90;;;;;;5049113;28;20435;-38
2020/12/05 04:57:39;;;;;;;17.03;13.13;;;6.80;99.90;;;;;;5048588;28;20432;-38
2020/12/05 05:00:07;;;;;;;16.00;12.23;;;6.80;99.90;;;;;;5050068;28;20424;-38
2020/12/05 05:02:39;;;;;;;20.27;13.70;;;6.90;99.90;;;;;;5049832;28;20464;-38
2020/12/05 05:05:07;;;;;;;16.20;13.00;;;6.60;99.90;;;;;;5048946;28;20449;-38
2020/12/05 05:07:45;;;;;;;17.27;13.30;;;6.80;99.90;;;;;;5049610;28;20519;-38
2020/12/05 05:10:16;;;;;;;16.33;12.20;;;6.60;99.90;;;;;;5048441;28;20452;-39
2020/12/05 05:12:42;;;;;;;17.40;13.80;;;6.70;99.90;;;;;;5049912;28;20467;-38
2020/12/05 05:15:31;;;;;;;18.23;13.53;;;6.60;99.90;;;;;;5048923;28;20490;-38
2020/12/05 05:18:02;;;;;;;19.97;13.57;;;6.90;99.90;;;;;;5049038;28;20229;-38
2020/12/05 05:20:29;;;;;;;19.40;14.43;;;6.60;99.90;;;;;;5049716;28;20927;-38
2020/12/05 05:23:17;;;;;;;17.97;13.73;;;6.50;99.90;;;;;;5047481;28;21004;-38
2020/12/05 05:25:59;;;;;;;19.57;14.03;;;6.70;99.90;;;;;;5049395;28;20419;-38
2020/12/05 05:28:33;;;;;;;19.07;14.17;;;6.70;99.90;;;;;;5049029;28;20507;-38
2020/12/05 05:31:28;;;;;;;16.60;13.57;;;6.80;99.90;;;;;;5049484;28;20934;-38
2020/12/05 05:33:55;;;;;;;17.63;13.93;;;6.80;99.90;;;;;;5048717;28;20778;-38
2020/12/05 05:36:25;;;;;;;17.73;12.70;;;6.70;99.90;;;;;;5048867;28;20428;-38
2020/12/05 05:39:01;;;;;;;17.13;12.60;;;6.80;99.90;;;;;;5048865;28;20420;-38
2020/12/05 05:41:27;;;;;;;19.67;14.10;;;6.80;99.90;;;;;;5048829;28;20450;-38
2020/12/05 05:44:02;;;;;;;18.10;14.60;;;7.00;99.90;;;;;;5048498;28;20421;-38
2020/12/05 05:46:33;;;;;;;17.70;13.30;;;6.60;99.90;;;;;;5049069;28;20412;-38
2020/12/05 05:49:00;;;;;;;19.40;13.73;;;6.70;99.90;;;;;;5049055;28;20522;-39
2020/12/05 05:51:47;;;;;;;17.80;14.20;;;6.70;99.90;;;;;;5048688;28;20512;-38
2020/12/05 05:54:17;;;;;;;19.57;13.83;;;6.60;99.90;;;;;;5048473;28;20412;-38
2020/12/05 05:57:04;;;;;;;19.10;14.63;;;6.30;99.90;;;;;;5048898;28;20438;-38
2020/12/05 05:59:40;;;;;;;18.87;14.90;;;6.40;99.90;;;;;;5047671;28;20511;-38
2020/12/05 06:02:12;;;;;;;19.23;14.43;;;6.60;99.90;;;;;;5048494;28;20470;-38
2020/12/05 06:04:42;;;;;;;19.23;13.83;;;6.80;99.90;;;;;;5048081;28;20456;-38
2020/12/05 06:07:10;;;;;;;18.10;13.50;;;6.60;99.90;;;;;;5048459;28;20412;-38
2020/12/05 06:09:53;;;;;;;17.40;13.17;;;6.30;99.90;;;;;;5048590;28;20860;-38
2020/12/05 06:12:33;;;;;;;20.30;13.57;;;6.40;99.90;;;;;;5048290;28;20920;-38
2020/12/05 06:14:58;;;;;;;18.00;13.07;;;6.30;99.90;;;;;;5047991;28;20750;-38
2020/12/05 06:17:24;;;;;;;16.60;12.70;;;6.10;99.90;;;;;;5047281;28;20444;-38
2020/12/05 06:19:52;;;;;;;19.80;13.70;;;6.30;99.90;;;;;;5048371;28;20204;-39
2020/12/05 06:22:27;;;;;;;18.20;14.93;;;6.50;99.90;;;;;;5048542;28;20487;-39
2020/12/05 06:25:02;;;;;;;18.27;12.97;;;6.50;99.90;;;;;;5047620;28;20416;-38
2020/12/05 06:27:29;;;;;;;16.20;12.50;;;6.40;99.90;;;;;;5048382;28;20419;-38
2020/12/05 06:29:56;;;;;;;18.73;12.93;;;6.30;99.90;;;;;;5034947;28;20521;-38
2020/12/05 06:32:38;;;;;;;19.53;14.13;;;6.20;99.90;;;;;;5048257;28;20459;-38
2020/12/05 06:35:25;;;;;;;18.80;14.20;;;6.30;99.90;;;;;;5047301;28;20412;-38
2020/12/05 06:37:52;;;;;;;18.17;13.10;;;6.20;99.90;;;;;;5048019;28;20862;-38
2020/12/05 06:40:18;;;;;;;17.63;12.90;;;6.30;99.90;;;;;;5048311;28;20420;-38
2020/12/05 06:42:50;;;;;;;18.27;13.53;;;6.20;99.90;;;;;;5047797;28;20464;-39
2020/12/05 06:45:28;;;;;;;17.00;12.97;;;6.40;99.90;;;;;;5047655;28;20432;-38
2020/12/05 06:47:53;;;;;;;19.33;13.67;;;6.40;99.90;;;;;;5048141;28;20443;-38
2020/12/05 06:50:35;;;;;;;18.03;13.00;;;6.30;99.90;;;;;;5048247;28;20405;-38
2020/12/05 06:53:01;;;;;;;18.77;13.27;;;6.30;99.90;;;;;;5047778;28;20549;-38
2020/12/05 06:55:32;;;;;;;19.50;14.37;;;6.30;99.90;;;;;;5047764;28;20416;-38
2020/12/05 06:58:06;;;;;;;16.57;13.13;;;6.30;99.90;;;;;;5047664;28;20411;-38
2020/12/05 07:00:33;;;;;;;17.00;12.53;;;6.20;99.90;;;;;;5037343;28;20524;-38
2020/12/05 07:03:00;;;;;;;18.10;13.80;;;6.10;99.90;;;;;;5035290;28;20503;-38
2020/12/05 07:05:46;;;;;;;19.07;13.00;;;6.20;99.90;;;;;;5047446;28;20405;-38
2020/12/05 07:08:37;;;;;;;19.53;13.60;;;6.30;99.90;;;;;;5047279;28;20447;-39
2020/12/05 07:11:15;;;;;;;16.13;12.80;;;6.20;99.90;;;;;;5047548;28;20508;-38
2020/12/05 07:13:49;;;;;;;18.40;13.50;;;6.30;99.90;;;;;;5051537;28;20415;-38
2020/12/05 07:16:26;;;;;;;17.37;12.83;;;6.10;99.90;;;;;;5050845;28;20814;-38
2020/12/05 07:18:54;;;;;;;18.00;13.00;;;6.40;99.90;;;;;;5051312;28;20876;-39
2020/12/05 07:21:21;;;;;;;18.67;12.77;;;6.20;99.90;;;;;;5051552;28;20502;-38
2020/12/05 07:23:47;;;;;;;15.53;12.70;;;6.00;99.90;;;;;;5051052;28;20420;-38
2020/12/05 07:26:14;;;;;;;18.43;14.60;;;6.20;99.90;;;;;;5051501;28;20520;-39
2020/12/05 07:28:45;;;;;;;19.63;12.93;;;6.00;99.90;;;;;;5051032;28;20486;-39
2020/12/05 07:31:11;;;;;;;16.03;12.63;;;6.30;99.90;;;;;;5064994;28;20503;-39
2020/12/05 07:33:38;;;;;;;15.87;12.30;;;6.10;99.90;;;;;;5046070;28;20492;-38
2020/12/05 07:36:05;;;;;;;16.87;12.60;;;6.10;99.90;;;;;;5050787;28;20537;-38
2020/12/05 07:38:33;;;;;;;15.80;12.07;;;5.90;99.90;;;;;;5051104;28;20416;-38
2020/12/05 07:41:07;;;;;;;17.03;13.37;;;6.30;99.90;;;;;;5052038;28;21043;-40
2020/12/05 07:43:33;;;;;;;17.50;13.23;;;6.20;99.90;;;;;;5050932;28;20922;-38
2020/12/05 07:46:03;;;;;;;17.43;13.20;;;6.40;99.90;;;;;;5049377;28;20414;-38
2020/12/05 07:48:29;;;;;;;18.90;14.30;;;6.10;99.90;;;;;;5048821;28;20177;-38
2020/12/05 07:50:55;;;;;;;21.17;14.97;;;6.30;99.90;;;;;;5051803;28;20451;-38
2020/12/05 07:53:24;;;;;;;19.57;14.43;;;6.20;99.90;;;;;;5051440;28;20189;-38
2020/12/05 07:55:50;;;;;;;18.90;14.57;;;6.40;99.90;;;;;;5051162;28;20197;-38
2020/12/05 07:58:16;;;;;;;17.63;13.77;;;6.20;99.90;;;;;;5050554;28;20420;-39
2020/12/05 08:00:42;;;;;;;17.60;13.73;;;6.20;99.90;;;;;;5052282;28;20508;-38
2020/12/05 08:03:46;;;;;;;17.17;12.83;;;6.30;99.90;;;;;;5050423;28;20464;-38
2020/12/05 08:06:34;;;;;;;21.23;13.10;;;6.10;99.90;;;;;;5050682;28;20420;-38
2020/12/05 08:09:05;;;;;;;19.87;13.50;;;5.90;99.90;;;;;;5039344;28;20429;-39
2020/12/05 08:11:42;;;;;;;17.87;13.63;;;6.00;99.90;;;;;;5051057;28;20789;-38
2020/12/05 08:14:11;;;;;;;16.70;13.40;;;6.10;99.90;;;;;;5057728;28;20434;-39
2020/12/05 08:16:39;;;;;;;16.90;12.63;;;6.20;99.90;;;;;;5054384;28;20529;-38
2020/12/05 08:19:05;;;;;;;17.03;12.40;;;6.00;99.90;;;;;;5070625;28;20431;-38
2020/12/05 08:21:31;;;;;;;16.50;12.07;;;6.20;99.90;;;;;;5070252;28;20467;-38
2020/12/05 08:24:07;;;;;;;16.57;12.50;;;6.40;99.90;;;;;;5069326;28;21051;-38
2020/12/05 08:26:34;;;;;;;15.20;11.30;;;6.70;99.90;;;;;;5070270;28;21011;-38
2020/12/05 08:29:01;;;;;;;14.20;10.63;;;6.50;99.90;;;;;;5043716;28;20425;-39
2020/12/05 08:31:28;;;;;;;17.07;11.70;;;6.70;99.90;;;;;;5049261;28;20427;-38
2020/12/05 08:33:54;;;;;;;15.83;11.73;;;7.00;99.90;;;;;;5047976;28;20424;-38
2020/12/05 08:36:35;;;;;;;15.47;11.40;;;7.20;99.90;;;;;;5049173;28;20428;-38
2020/12/05 08:39:08;;;;;;;12.60;9.97;;;7.50;99.90;;;;;;5048991;28;20424;-39
2020/12/05 08:41:50;;;;;;;11.33;9.40;;;7.80;99.90;;;;;;5044550;28;20470;-38
2020/12/05 08:44:20;;;;;;;16.43;8.57;;;7.80;99.90;;;;;;5047239;28;20416;-38
2020/12/05 08:47:01;;;;;;;11.50;8.77;;;8.10;99.90;;;;;;5051399;28;20495;-38
2020/12/05 08:49:26;;;;;;;11.90;9.23;;;8.20;99.90;;;;;;5039732;28;20416;-38
2020/12/05 08:51:53;;;;;;;10.70;8.93;;;8.60;99.90;;;;;;5047398;28;20416;-38
2020/12/05 08:54:20;;;;;;;9.90;8.20;;;8.90;99.90;;;;;;5048603;28;20199;-38
2020/12/05 08:56:45;;;;;;;11.10;8.87;;;8.90;99.90;;;;;;5049751;28;20420;-38
2020/12/05 08:59:12;;;;;;;10.53;9.40;;;8.70;99.90;;;;;;5049785;28;20523;-38
2020/12/05 09:01:42;;;;;;;10.47;8.60;;;9.20;99.90;;;;;;5049677;28;20209;-38
2020/12/05 09:04:12;;;;;;;11.90;10.00;;;8.50;99.90;;;;;;5049401;28;20470;-38
2020/12/05 09:06:38;;;;;;;9.47;7.53;;;9.00;99.90;;;;;;5049488;28;20476;-38
2020/12/05 09:09:04;;;;;;;8.63;7.00;;;9.00;99.90;;;;;;5048310;28;20847;-38
2020/12/05 09:11:30;;;;;;;8.07;6.93;;;9.40;99.90;;;;;;5049665;28;20432;-38
2020/12/05 09:13:56;;;;;;;9.43;7.87;;;9.50;99.90;;;;;;5048157;28;20288;-40
2020/12/05 09:16:32;;;;;;;7.63;6.50;;;9.80;99.90;;;;;;5048522;28;20185;-38
2020/12/05 09:18:58;;;;;;;8.57;6.90;;;10.10;99.90;;;;;;5048549;28;20424;-38
2020/12/05 09:21:23;;;;;;;9.63;6.67;;;10.20;99.90;;;;;;5048392;28;20522;-39
2020/12/05 09:24:05;;;;;;;7.17;6.07;;;10.60;99.90;;;;;;5048889;28;20199;-39
2020/12/05 09:26:35;;;;;;;8.07;6.67;;;10.90;99.90;;;;;;5049522;28;20558;-39
2020/12/05 09:29:00;;;;;;;6.07;5.20;;;10.80;99.90;;;;;;5049627;28;20446;-39
2020/12/05 09:31:26;;;;;;;6.63;5.87;;;11.50;99.90;;;;;;5049356;28;20769;-39
2020/12/05 09:33:52;;;;;;;7.70;5.70;;;11.90;99.90;;;;;;5048968;28;20420;-39
2020/12/05 09:36:18;;;;;;;6.70;5.40;;;12.40;99.90;;;;;;5047911;28;20185;-39
2020/12/05 09:38:44;;;;;;;6.73;5.70;;;12.90;98.70;;;;;;5049513;28;20186;-38
2020/12/05 09:41:09;;;;;;;5.60;5.00;;;13.90;97.40;;;;;;5049040;28;20501;-38
2020/12/05 09:43:35;;;;;;;7.00;5.50;;;15.00;94.60;;;;;;5048644;28;20190;-39
2020/12/05 09:46:01;;;;;;;7.40;5.57;;;16.00;92.80;;;;;;5049008;28;20190;-38
2020/12/05 09:48:26;;;;;;;5.70;5.10;;;16.10;91.90;;;;;;5049029;28;20200;-38
2020/12/05 09:50:52;;;;;;;5.77;5.27;;;14.90;92.40;;;;;;5047390;28;20193;-39
2020/12/05 09:53:18;;;;;;;5.67;5.13;;;14.10;94.50;;;;;;5048218;28;20190;-38
2020/12/05 09:55:44;;;;;;;5.27;4.23;;;13.30;95.90;;;;;;5048962;28;20194;-38
2020/12/05 09:58:09;;;;;;;4.40;4.00;;;12.50;96.70;;;;;;5048884;28;20845;-39
2020/12/05 10:00:35;;;;;;;4.27;3.67;;;12.60;97.80;;;;;;5048814;28;20292;-38
2020/12/05 10:03:01;;;;;;;4.43;4.03;;;12.30;98.00;;;;;;5047815;28;20213;-39
2020/12/05 10:05:26;;;;;;;4.10;3.70;;;12.10;97.50;;;;;;5048066;28;20186;-38
2020/12/05 10:07:52;;;;;;;4.20;3.80;;;12.10;97.20;;;;;;5048619;28;20193;-38
2020/12/05 10:10:18;;;;;;;4.43;3.93;;;12.20;97.60;;;;;;5048776;28;20185;-38
2020/12/05 10:12:44;;;;;;;3.50;3.20;;;12.30;97.70;;;;;;5048357;28;20185;-38
2020/12/05 10:15:14;;;;;;;4.23;3.10;;;12.10;96.30;;;;;;5046771;28;20428;-38
2020/12/05 10:17:44;;;;;;;4.23;3.73;;;12.10;96.40;;;;;;5045869;28;20221;-40
2020/12/05 10:20:10;;;;;;;3.83;3.53;;;11.90;97.10;;;;;;5046946;28;20859;-39
2020/12/05 10:22:36;;;;;;;4.00;3.30;;;11.80;97.00;;;;;;5048289;28;20482;-38
2020/12/05 10:25:05;;;;;;;3.40;3.07;;;11.40;96.80;;;;;;5046398;28;20452;-38
2020/12/05 10:27:31;;;;;;;5.10;3.40;;;11.10;97.60;;;;;;5048571;28;20417;-38
2020/12/05 10:29:56;;;;;;;3.40;3.10;;;10.70;97.90;;;;;;5048250;28;20431;-39
2020/12/05 10:32:22;;;;;;;4.03;3.20;;;10.60;98.50;;;;;;5048110;28;20468;-38
2020/12/05 10:34:48;;;;;;;3.40;3.10;;;10.30;98.50;;;;;;5047376;28;20924;-38
2020/12/05 10:37:14;;;;;;;3.60;3.30;;;10.30;99.10;;;;;;5048205;28;20251;-38
2020/12/05 10:39:39;;;;;;;4.20;3.10;;;10.00;99.10;;;;;;5048124;28;20286;-38
2020/12/05 10:42:05;;;;;;;3.60;3.00;;;10.60;99.80;;;;;;5048113;28;20214;-38
2020/12/05 10:44:31;;;;;;;3.13;2.83;;;10.30;99.20;;;;;;5045358;28;20193;-38
2020/12/05 10:46:57;;;;;;;2.93;2.73;;;10.70;98.90;;;;;;5038874;28;20205;-38
2020/12/05 10:49:23;;;;;;;2.63;2.43;;;10.90;98.00;;;;;;5040018;28;20560;-38
2020/12/05 10:51:49;;;;;;;3.27;2.97;;;10.70;97.70;;;;;;5046426;28;20721;-38
2020/12/05 10:54:16;;;;;;;3.30;2.90;;;11.00;98.50;;;;;;5044308;28;20436;-39
2020/12/05 10:56:42;;;;;;;2.70;2.50;;;10.80;98.30;;;;;;5046789;28;20814;-38
2020/12/05 10:59:08;;;;;;;3.77;2.97;;;10.60;98.00;;;;;;5047699;28;20818;-38
2020/12/05 11:01:34;;;;;;;3.27;2.93;;;10.50;99.00;;;;;;5047552;28;20465;-38
2020/12/05 11:04:01;;;;;;;2.57;2.37;;;10.10;98.90;;;;;;5047226;28;20579;-39
2020/12/05 11:06:27;;;;;;;2.43;2.23;;;9.80;99.90;;;;;;5047997;28;20793;-39
2020/12/05 11:08:53;;;;;;;3.63;2.63;;;9.60;99.90;;;;;;5047914;28;20451;-39
2020/12/05 11:11:20;;;;;;;2.67;2.23;;;9.80;99.90;;;;;;5047834;28;20985;-39
2020/12/05 11:13:46;;;;;;;3.33;2.60;;;9.50;99.90;;;;;;5047173;28;20491;-39
2020/12/05 11:16:18;;;;;;;3.00;2.70;;;9.40;99.90;;;;;;5046546;28;20503;-39
2020/12/05 11:18:43;;;;;;;3.00;2.70;;;9.50;99.90;;;;;;5047915;28;20516;-38
2020/12/05 11:21:09;;;;;;;2.83;2.53;;;9.50;99.90;;;;;;5046324;28;20527;-39
2020/12/05 11:23:35;;;;;;;2.10;1.90;;;9.60;99.90;;;;;;5047057;28;21005;-39
2020/12/05 11:26:01;;;;;;;2.47;2.27;;;9.60;99.90;;;;;;5047670;28;20193;-38
2020/12/05 11:28:27;;;;;;;2.07;1.87;;;9.60;99.90;;;;;;5047585;28;20186;-38
2020/12/05 11:30:53;;;;;;;2.87;2.23;;;9.50;99.50;;;;;;5047375;28;20559;-39
2020/12/05 11:33:18;;;;;;;2.50;2.10;;;9.50;99.50;;;;;;5046824;28;20427;-38
2020/12/05 11:35:44;;;;;;;1.83;1.73;;;9.00;99.90;;;;;;5047792;28;20420;-39
2020/12/05 11:38:10;;;;;;;2.60;2.40;;;9.20;99.90;;;;;;5047811;28;20205;-39
2020/12/05 11:40:36;;;;;;;2.30;2.10;;;9.10;99.90;;;;;;5046372;28;20202;-39
2020/12/05 11:43:01;;;;;;;2.57;2.37;;;9.20;99.90;;;;;;5045428;28;20221;-38
2020/12/05 11:45:27;;;;;;;1.80;1.70;;;8.90;99.90;;;;;;5047108;28;20555;-38
2020/12/05 11:47:53;;;;;;;2.00;1.87;;;8.90;99.90;;;;;;5047237;28;20267;-39
2020/12/05 11:50:19;;;;;;;2.37;2.17;;;8.80;99.90;;;;;;5047628;28;20193;-40
2020/12/05 11:52:44;;;;;;;4.50;2.40;;;9.00;99.90;;;;;;5047723;28;20190;-38
2020/12/05 11:55:10;;;;;;;2.53;1.90;;;8.60;99.90;;;;;;5046747;28;20632;-38
2020/12/05 11:57:37;;;;;;;5.17;2.37;;;8.60;99.90;;;;;;5046168;28;20627;-38
2020/12/05 12:00:03;;;;;;;3.17;2.43;;;8.80;99.90;;;;;;5050537;28;20185;-39
2020/12/05 12:02:29;;;;;;;2.37;2.17;;;8.80;99.90;;;;;;5051401;28;20853;-38
2020/12/05 12:04:55;;;;;;;1.70;1.60;;;9.20;99.90;;;;;;5050368;28;20423;-38
2020/12/05 12:07:22;;;;;;;1.70;1.60;;;9.60;99.90;;;;;;5050994;28;20652;-39
2020/12/05 12:09:47;;;;;;;2.67;1.57;;;9.90;98.10;;;;;;5051211;28;20471;-39
2020/12/05 12:12:13;;;;;;;1.43;1.30;;;10.60;96.00;;;;;;5051433;28;20798;-41
2020/12/05 12:14:39;;;;;;;2.33;1.40;;;11.30;95.30;;;;;;5050050;28;20189;-40
2020/12/05 12:17:04;;;;;;;1.53;1.43;;;10.90;94.90;;;;;;5048619;28;20247;-39
2020/12/05 12:19:30;;;;;;;1.50;1.40;;;10.70;95.30;;;;;;5050628;28;20623;-39
2020/12/05 12:21:56;;;;;;;1.70;1.40;;;10.30;95.50;;;;;;5050727;28;20316;-40
2020/12/05 12:24:21;;;;;;;2.27;1.40;;;10.20;96.00;;;;;;5049984;28;20721;-39
2020/12/05 12:26:47;;;;;;;1.20;1.10;;;9.80;96.80;;;;;;5049656;28;20251;-38
2020/12/05 12:29:13;;;;;;;1.87;1.57;;;9.40;96.60;;;;;;5048900;28;20196;-41
2020/12/05 12:31:38;;;;;;;1.13;1.00;;;9.30;97.50;;;;;;5065851;28;20568;-40
2020/12/05 12:34:04;;;;;;;1.30;1.10;;;9.30;97.70;;;;;;5048602;28;20205;-40
2020/12/05 12:36:30;;;;;;;1.60;1.47;;;9.20;97.90;;;;;;5050616;28;20293;-38
2020/12/05 12:38:55;;;;;;;1.40;1.10;;;8.90;98.20;;;;;;5049315;28;20671;-39
2020/12/05 12:41:21;;;;;;;2.10;1.43;;;8.90;98.30;;;;;;5048881;28;20205;-38
2020/12/05 12:43:48;;;;;;;1.27;1.10;;;8.90;98.70;;;;;;5049307;28;20259;-39
2020/12/05 12:46:16;;;;;;;1.70;1.30;;;8.90;98.30;;;;;;5050122;28;20181;-38
2020/12/05 12:48:42;;;;;;;1.70;1.60;;;9.00;98.40;;;;;;5050200;28;20431;-38
2020/12/05 12:51:08;;;;;;;1.00;0.90;;;8.90;98.10;;;;;;5050141;28;20416;-40
2020/12/05 12:53:37;;;;;;;1.37;1.27;;;8.80;98.20;;;;;;5049441;28;20226;-39
2020/12/05 12:56:04;;;;;;;1.17;1.00;;;8.90;98.70;;;;;;5044812;28;20432;-39